createdAt,value
2023-01-09T00:00:16.443Z,0.30
2023-01-09T00:03:08.194Z,0.30
2023-01-09T00:05:37.383Z,0.40
2023-01-09T00:08:06.842Z,0.30
2023-01-09T00:10:35.969Z,0.20
2023-01-09T00:13:04.937Z,0.30
2023-01-09T00:15:37.188Z,0.20
2023-01-09T00:18:06.137Z,0.30
2023-01-09T00:20:36.087Z,0.40
2023-01-09T00:23:05.040Z,0.20
2023-01-09T00:25:34.079Z,0.30
2023-01-09T00:28:03.367Z,0.50
2023-01-09T00:30:32.468Z,0.40
2023-01-09T00:33:01.623Z,0.20
2023-01-09T00:35:30.783Z,0.20
2023-01-09T00:37:59.889Z,0.20
2023-01-09T00:40:29.477Z,0.20
2023-01-09T00:42:59.053Z,0.20
2023-01-09T00:45:29.941Z,0.30
2023-01-09T00:48:04.456Z,0.20
2023-01-09T00:50:38.322Z,0.20
2023-01-09T00:53:14.205Z,0.10
2023-01-09T00:55:43.405Z,0.30
2023-01-09T00:58:12.789Z,0.30
2023-01-09T01:00:41.914Z,0.20
2023-01-09T01:03:11.059Z,0.20
2023-01-09T01:05:58.551Z,0.30
2023-01-09T01:08:27.650Z,0.50
2023-01-09T01:10:56.732Z,0.20
2023-01-09T01:13:25.701Z,0.30
2023-01-09T01:15:54.735Z,0.10
2023-01-09T01:18:23.934Z,0.20
2023-01-09T01:20:55.693Z,0.20
2023-01-09T01:23:25.045Z,0.10
2023-01-09T01:25:56.922Z,0.40
2023-01-09T01:28:26.397Z,0.20
2023-01-09T01:30:55.397Z,0.30
2023-01-09T01:33:24.316Z,0.50
2023-01-09T01:38:30.779Z,0.30
2023-01-09T01:41:03.001Z,0.20
2023-01-09T01:43:56.414Z,0.30
2023-01-09T01:46:25.443Z,0.30
2023-01-09T01:49:04.769Z,0.50
2023-01-09T01:51:39.760Z,0.20
2023-01-09T01:54:14.804Z,0.50
2023-01-09T01:56:54.345Z,0.20
2023-01-09T01:59:39.534Z,0.20
2023-01-09T02:02:13.801Z,0.20
2023-01-09T02:04:43.597Z,0.10
2023-01-09T02:07:12.562Z,0.20
2023-01-09T02:09:45.347Z,0.40
2023-01-09T02:12:20.007Z,0.30
2023-01-09T02:14:52.010Z,0.30
2023-01-09T02:17:23.844Z,0.40
2023-01-09T02:20:23.614Z,0.30
2023-01-09T02:23:30.277Z,0.50
2023-01-09T02:26:19.951Z,0.30
2023-01-09T02:29:23.766Z,0.30
2023-01-09T02:31:58.785Z,0.30
2023-01-09T02:34:31.094Z,0.30
2023-01-09T02:37:21.254Z,0.40
2023-01-09T02:40:12.139Z,0.10
2023-01-09T02:42:45.042Z,0.30
2023-01-09T02:45:14.041Z,0.40
2023-01-09T02:47:47.831Z,0.40
2023-01-09T02:50:28.702Z,0.40
2023-01-09T02:53:10.398Z,0.30
2023-01-09T02:55:49.666Z,0.50
2023-01-09T02:58:40.583Z,0.60
2023-01-09T03:01:38.124Z,0.30
2023-01-09T03:04:26.354Z,0.30
2023-01-09T03:07:18.072Z,0.50
2023-01-09T03:09:51.413Z,0.40
2023-01-09T03:12:28.449Z,0.60
2023-01-09T03:15:01.139Z,0.60
2023-01-09T03:21:07.975Z,0.60
2023-01-09T03:24:11.022Z,0.40
2023-01-09T03:26:58.941Z,0.60
2023-01-09T03:29:44.947Z,0.50
2023-01-09T03:32:15.263Z,0.40
2023-01-09T03:34:42.861Z,0.40
2023-01-09T03:37:10.490Z,0.40
2023-01-09T03:39:38.194Z,0.40
2023-01-09T03:42:06.041Z,0.70
2023-01-09T03:44:33.740Z,0.30
2023-01-09T03:47:01.476Z,0.50
2023-01-09T03:49:29.079Z,0.50
2023-01-09T03:51:57.018Z,0.50
2023-01-09T03:54:24.936Z,0.30
2023-01-09T03:56:58.453Z,0.40
2023-01-09T03:59:26.158Z,0.50
2023-01-09T04:01:53.845Z,0.40
2023-01-09T04:04:21.690Z,0.40
2023-01-09T04:06:49.370Z,0.50
2023-01-09T04:09:19.512Z,0.40
2023-01-09T04:11:47.309Z,0.40
2023-01-09T04:14:15.239Z,0.40
2023-01-09T04:16:43.034Z,0.60
2023-01-09T04:19:10.849Z,0.90
2023-01-09T04:21:38.459Z,0.70
2023-01-09T04:24:06.849Z,0.60
2023-01-09T04:26:34.278Z,0.40
2023-01-09T04:29:01.970Z,0.50
2023-01-09T04:31:29.694Z,0.60
2023-01-09T04:33:57.445Z,0.70
2023-01-09T04:36:25.152Z,0.60
2023-01-09T04:39:02.330Z,0.30
2023-01-09T04:41:48.706Z,0.40
2023-01-09T04:44:27.078Z,0.50
2023-01-09T04:46:57.938Z,0.90
2023-01-09T04:49:25.727Z,0.70
2023-01-09T04:51:54.433Z,0.70
2023-01-09T04:54:22.187Z,0.60
2023-01-09T04:56:49.929Z,0.40
2023-01-09T04:59:20.657Z,0.40
2023-01-09T05:01:48.339Z,0.40
2023-01-09T05:04:41.053Z,0.70
2023-01-09T05:07:12.137Z,0.60
2023-01-09T05:09:45.916Z,0.50
2023-01-09T05:12:13.566Z,0.60
2023-01-09T05:14:41.129Z,0.60
2023-01-09T05:17:08.879Z,0.30
2023-01-09T05:19:36.595Z,0.50
2023-01-09T05:22:13.133Z,0.60
2023-01-09T05:24:40.904Z,0.40
2023-01-09T05:27:08.559Z,0.70
2023-01-09T05:29:36.142Z,0.70
2023-01-09T05:32:04.062Z,0.30
2023-01-09T05:34:31.828Z,0.70
2023-01-09T05:36:59.431Z,0.80
2023-01-09T05:39:27.130Z,0.60
2023-01-09T05:41:54.711Z,0.80
2023-01-09T05:44:22.494Z,0.80
2023-01-09T05:46:50.243Z,0.60
2023-01-09T05:49:17.852Z,1.00
2023-01-09T05:51:45.482Z,0.80
2023-01-09T05:54:13.191Z,0.70
2023-01-09T05:56:42.648Z,0.80
2023-01-09T05:59:10.337Z,0.40
2023-01-09T06:01:37.908Z,0.60
2023-01-09T06:04:05.692Z,0.70
2023-01-09T06:06:33.502Z,0.60
2023-01-09T06:09:03.582Z,0.50
2023-01-09T06:11:31.363Z,0.60
2023-01-09T06:13:59.223Z,0.80
2023-01-09T06:16:27.160Z,0.90
2023-01-09T06:18:55.038Z,0.50
2023-01-09T06:21:22.801Z,0.80
2023-01-09T06:23:50.560Z,0.70
2023-01-09T06:26:20.581Z,0.80
2023-01-09T06:28:48.331Z,0.50
2023-01-09T06:31:16.045Z,0.60
2023-01-09T06:33:43.845Z,0.70
2023-01-09T06:36:11.530Z,0.80
2023-01-09T06:38:39.289Z,0.60
2023-01-09T06:41:16.013Z,0.80
2023-01-09T06:43:43.778Z,0.60
2023-01-09T06:46:11.482Z,1.00
2023-01-09T06:48:39.205Z,0.40
2023-01-09T06:51:06.854Z,0.70
2023-01-09T06:53:37.365Z,0.90
2023-01-09T06:56:13.346Z,0.60
2023-01-09T06:59:31.495Z,0.50
2023-01-09T07:01:59.311Z,0.80
2023-01-09T07:04:29.750Z,0.60
2023-01-09T07:06:57.395Z,0.80
2023-01-09T07:09:27.631Z,0.90
2023-01-09T07:11:55.350Z,0.60
2023-01-09T07:14:22.967Z,0.60
2023-01-09T07:16:50.605Z,0.70
2023-01-09T07:19:18.234Z,0.80
2023-01-09T07:21:45.898Z,0.50
2023-01-09T07:24:13.658Z,0.70
2023-01-09T07:26:43.277Z,0.80
2023-01-09T07:29:11.280Z,0.70
2023-01-09T07:31:38.956Z,0.60
2023-01-09T07:34:15.465Z,0.80
2023-01-09T07:37:03.272Z,0.40
2023-01-09T07:39:31.018Z,0.50
2023-01-09T07:41:58.843Z,0.60
2023-01-09T07:44:26.577Z,0.60
2023-01-09T07:46:54.204Z,0.40
2023-01-09T07:49:21.908Z,0.70
2023-01-09T07:51:49.452Z,0.80
2023-01-09T07:54:17.531Z,0.90
2023-01-09T07:57:08.661Z,0.80
2023-01-09T07:59:36.136Z,1.10
2023-01-09T08:02:05.529Z,2.80
2023-01-09T08:04:34.002Z,1.20
2023-01-09T08:07:03.187Z,1.70
2023-01-09T08:09:30.829Z,1.00
2023-01-09T08:11:58.448Z,1.10
2023-01-09T08:14:26.067Z,0.80
2023-01-09T08:20:19.979Z,0.40
2023-01-09T08:22:50.309Z,0.60
2023-01-09T08:25:19.440Z,2.50
2023-01-09T08:27:48.539Z,2.60
2023-01-09T08:32:54.780Z,1.50
2023-01-09T08:35:23.690Z,1.10
2023-01-09T08:37:52.778Z,1.10
2023-01-09T08:40:21.972Z,1.10
2023-01-09T08:43:09.858Z,0.90
2023-01-09T08:45:57.574Z,0.90
2023-01-09T08:48:26.541Z,0.80
2023-01-09T08:53:24.226Z,0.70
2023-01-09T08:55:53.249Z,0.60
2023-01-09T09:00:51.411Z,0.70
2023-01-09T09:05:49.158Z,0.60
2023-01-09T09:10:46.807Z,0.90
2023-01-09T09:15:44.623Z,2.30
2023-01-09T09:18:13.664Z,1.70
2023-01-09T09:20:42.802Z,2.10
2023-01-09T09:23:11.778Z,3.40
2023-01-09T09:28:10.646Z,1.80
2023-01-09T09:30:39.826Z,1.40
2023-01-09T09:33:09.132Z,1.00
2023-01-09T09:35:38.500Z,1.00
2023-01-09T09:38:07.465Z,1.00
2023-01-09T09:43:53.720Z,0.80
2023-01-09T09:46:37.233Z,0.60
2023-01-09T09:49:32.254Z,1.10
2023-01-09T09:52:07.172Z,1.10
2023-01-09T09:54:44.559Z,1.20
2023-01-09T09:57:22.423Z,1.30
2023-01-09T09:59:52.250Z,0.80
2023-01-09T10:02:26.933Z,1.40
2023-01-09T10:07:51.424Z,0.80
2023-01-09T10:10:31.158Z,1.40
2023-01-09T10:13:21.271Z,1.00
2023-01-09T10:16:19.407Z,1.10
2023-01-09T10:19:11.268Z,1.40
2023-01-09T10:21:57.919Z,1.20
2023-01-09T10:25:05.823Z,1.00
2023-01-09T10:27:49.715Z,1.00
2023-01-09T10:30:43.109Z,1.10
2023-01-09T10:37:15.883Z,1.00
2023-01-09T10:40:28.374Z,1.00
2023-01-09T10:43:07.704Z,0.70
2023-01-09T10:45:38.811Z,1.60
2023-01-09T10:48:17.780Z,1.10
2023-01-09T10:50:48.675Z,1.50
2023-01-09T10:53:23.676Z,1.10
2023-01-09T10:55:55.679Z,1.10
2023-01-09T10:58:23.327Z,0.60
2023-01-09T11:00:51.774Z,1.00
2023-01-09T11:03:22.011Z,1.10
2023-01-09T11:05:58.989Z,0.90
2023-01-09T11:08:42.663Z,1.30
2023-01-09T11:11:12.770Z,1.20
2023-01-09T11:13:46.613Z,1.30
2023-01-09T11:16:21.209Z,0.90
2023-01-09T11:18:52.689Z,1.00
2023-01-09T11:21:38.842Z,0.90
2023-01-09T11:24:18.931Z,0.50
2023-01-09T11:26:48.196Z,0.70
2023-01-09T11:29:18.626Z,0.90
2023-01-09T11:32:06.632Z,0.90
2023-01-09T11:34:36.769Z,0.90
2023-01-09T11:37:18.668Z,1.10
2023-01-09T11:39:47.757Z,1.00
2023-01-09T11:42:44.036Z,0.60
2023-01-09T11:45:18.921Z,0.80
2023-01-09T11:47:47.070Z,1.10
2023-01-09T11:50:20.551Z,0.70
2023-01-09T11:53:19.900Z,1.10
2023-01-09T11:55:56.879Z,1.10
2023-01-09T11:58:24.666Z,0.60
2023-01-09T12:01:20.035Z,1.10
2023-01-09T12:04:25.026Z,0.90
2023-01-09T12:07:11.215Z,0.80
2023-01-09T12:09:56.904Z,0.50
2023-01-09T12:12:43.223Z,1.40
2023-01-09T12:18:36.517Z,0.80
2023-01-09T12:21:17.960Z,0.80
2023-01-09T12:23:48.547Z,0.90
2023-01-09T12:26:31.568Z,1.50
2023-01-09T12:29:04.914Z,1.10
2023-01-09T12:32:05.135Z,0.70
2023-01-09T12:35:12.541Z,0.80
2023-01-09T12:38:23.097Z,1.00
2023-01-09T12:41:02.863Z,1.70
2023-01-09T12:43:55.612Z,1.80
2023-01-09T12:46:31.659Z,2.20
2023-01-09T12:49:28.732Z,1.80
2023-01-09T12:52:01.533Z,0.70
2023-01-09T12:54:37.328Z,0.90
2023-01-09T12:57:13.205Z,1.10
2023-01-09T12:59:53.738Z,1.10
2023-01-09T13:02:27.986Z,0.90
2023-01-09T13:05:10.709Z,0.80
2023-01-09T13:07:48.355Z,1.20
2023-01-09T13:10:23.093Z,1.00
2023-01-09T13:12:52.281Z,1.00
2023-01-09T13:15:31.879Z,0.90
2023-01-09T13:18:14.043Z,1.50
2023-01-09T13:20:49.494Z,0.70
2023-01-09T13:23:47.027Z,0.80
2023-01-09T13:26:21.616Z,0.60
2023-01-09T13:29:07.488Z,0.60
2023-01-09T13:31:43.593Z,0.60
2023-01-09T13:34:22.385Z,0.50
2023-01-09T13:36:56.158Z,1.00
2023-01-09T13:39:37.590Z,0.70
2023-01-09T13:42:34.436Z,0.70
2023-01-09T13:45:18.980Z,0.70
2023-01-09T13:47:46.630Z,1.00
2023-01-09T13:50:27.120Z,0.90
2023-01-09T13:52:55.801Z,0.80
2023-01-09T13:55:26.720Z,0.50
2023-01-09T13:58:07.864Z,0.80
2023-01-09T14:04:10.320Z,0.80
2023-01-09T14:06:39.192Z,0.50
2023-01-09T14:09:22.191Z,0.60
2023-01-09T14:12:04.994Z,0.50
2023-01-09T14:14:35.592Z,0.70
2023-01-09T14:17:24.002Z,1.00
2023-01-09T14:19:59.351Z,0.90
2023-01-09T14:22:42.341Z,0.50
2023-01-09T14:25:25.227Z,0.70
2023-01-09T14:28:00.597Z,0.70
2023-01-09T14:30:38.664Z,0.50
2023-01-09T14:33:20.207Z,0.90
2023-01-09T14:36:13.658Z,1.30
2023-01-09T14:38:47.520Z,0.60
2023-01-09T14:41:16.267Z,0.80
2023-01-09T14:46:35.941Z,1.10
2023-01-09T14:49:13.795Z,1.50
2023-01-09T14:51:47.497Z,1.20
2023-01-09T14:54:34.410Z,0.60
2023-01-09T14:57:04.109Z,0.50
2023-01-09T14:59:32.934Z,0.70
2023-01-09T15:04:39.223Z,0.70
2023-01-09T15:07:20.449Z,0.70
2023-01-09T15:09:49.368Z,1.00
2023-01-09T15:12:24.455Z,0.90
2023-01-09T15:14:58.679Z,0.70
2023-01-09T15:17:34.348Z,0.30
2023-01-09T15:20:06.665Z,0.90
2023-01-09T15:22:37.553Z,0.80
2023-01-09T15:25:40.420Z,0.90
2023-01-09T15:28:30.134Z,1.00
2023-01-09T15:31:07.419Z,1.00
2023-01-09T15:33:40.287Z,0.90
2023-01-09T15:36:15.400Z,0.90
2023-01-09T15:38:45.046Z,0.70
2023-01-09T15:41:40.243Z,0.80
2023-01-09T15:44:16.646Z,0.90
2023-01-09T15:46:47.412Z,0.90
2023-01-09T15:49:18.102Z,0.70
2023-01-09T15:51:49.497Z,0.70
2023-01-09T15:54:27.724Z,0.70
2023-01-09T15:57:25.849Z,0.90
2023-01-09T15:59:56.664Z,0.80
2023-01-09T16:02:45.701Z,0.70
2023-01-09T16:05:17.160Z,0.90
2023-01-09T16:07:48.382Z,0.80
2023-01-09T16:10:29.213Z,0.80
2023-01-09T16:12:58.896Z,1.10
2023-01-09T16:15:31.995Z,1.40
2023-01-09T16:18:17.061Z,1.50
2023-01-09T16:20:46.506Z,1.80
2023-01-09T16:23:34.986Z,4.10
2023-01-09T16:26:07.619Z,2.90
2023-01-09T16:28:36.688Z,2.50
2023-01-09T16:31:18.450Z,2.00
2023-01-09T16:33:52.548Z,0.90
2023-01-09T16:36:22.424Z,0.70
2023-01-09T16:38:51.466Z,1.00
2023-01-09T16:41:41.309Z,1.10
2023-01-09T16:44:11.227Z,1.80
2023-01-09T16:46:46.442Z,1.40
2023-01-09T16:49:22.601Z,1.40
2023-01-09T16:51:52.508Z,2.30
2023-01-09T16:54:22.127Z,2.50
2023-01-09T16:56:55.049Z,2.30
2023-01-09T16:59:27.988Z,2.20
2023-01-09T17:01:56.948Z,1.60
2023-01-09T17:04:25.947Z,1.50
2023-01-09T17:09:27.505Z,2.20
2023-01-09T17:11:56.665Z,2.50
2023-01-09T17:17:02.800Z,1.90
2023-01-09T17:19:31.804Z,1.40
2023-01-09T17:24:54.009Z,0.80
2023-01-09T17:27:54.100Z,1.10
2023-01-09T17:30:23.251Z,0.90
2023-01-09T17:32:52.149Z,1.00
2023-01-09T17:35:21.008Z,1.00
2023-01-09T17:37:49.908Z,1.90
2023-01-09T17:42:52.837Z,1.90
2023-01-09T17:45:21.923Z,1.20
2023-01-09T17:47:51.021Z,1.30
2023-01-09T17:50:21.988Z,1.40
2023-01-09T17:52:51.584Z,1.40
2023-01-09T17:55:20.931Z,2.10
2023-01-09T17:57:49.953Z,1.50
2023-01-09T18:00:31.085Z,1.50
2023-01-09T18:03:00.443Z,1.40
2023-01-09T18:05:29.735Z,0.90
2023-01-09T18:07:58.700Z,1.30
2023-01-09T18:10:28.809Z,0.90
2023-01-09T18:12:57.660Z,1.20
2023-01-09T18:15:26.557Z,1.20
2023-01-09T18:20:26.972Z,4.00
2023-01-09T18:22:55.925Z,2.30
2023-01-09T18:27:53.584Z,2.80
2023-01-09T18:30:22.423Z,4.30
2023-01-09T18:32:51.280Z,4.80
2023-01-09T18:35:20.179Z,8.90
2023-01-09T18:37:49.292Z,9.30
2023-01-09T18:40:18.235Z,8.10
2023-01-09T18:42:47.618Z,5.60
2023-01-09T18:45:16.465Z,5.80
2023-01-09T18:47:45.312Z,5.70
2023-01-09T18:50:14.409Z,5.50
2023-01-09T18:52:43.404Z,2.80
2023-01-09T18:57:44.001Z,1.90
2023-01-09T19:00:13.577Z,2.50
2023-01-09T19:02:42.578Z,1.20
2023-01-09T19:05:11.963Z,1.30
2023-01-09T19:07:40.854Z,1.60
2023-01-09T19:10:10.886Z,0.90
2023-01-09T19:12:40.313Z,1.00
2023-01-09T19:15:13.349Z,1.00
2023-01-09T19:17:42.203Z,0.90
2023-01-09T19:26:09.291Z,1.10
2023-01-09T19:28:48.767Z,0.80
2023-01-09T19:31:18.738Z,0.80
2023-01-09T19:33:47.668Z,0.90
2023-01-09T19:36:16.996Z,0.80
2023-01-09T19:38:46.103Z,1.10
2023-01-09T19:41:20.263Z,0.80
2023-01-09T19:43:49.240Z,0.80
2023-01-09T19:46:21.491Z,0.80
2023-01-09T19:48:52.295Z,1.20
2023-01-09T19:51:23.031Z,0.60
2023-01-09T19:56:30.331Z,0.70
2023-01-09T19:59:01.684Z,0.80
2023-01-09T20:01:33.312Z,0.70
2023-01-09T20:04:08.116Z,1.00
2023-01-09T20:09:44.417Z,0.70
2023-01-09T20:12:13.420Z,1.10
2023-01-09T20:14:42.468Z,0.60
2023-01-09T20:17:12.163Z,0.80
2023-01-09T20:19:41.187Z,0.90
2023-01-09T20:24:39.620Z,0.50
2023-01-09T20:27:08.689Z,0.90
2023-01-09T20:29:37.565Z,1.10
2023-01-09T20:32:08.029Z,0.70
2023-01-09T20:34:37.067Z,0.70
2023-01-09T20:37:06.145Z,0.70
2023-01-09T20:42:04.019Z,0.80
2023-01-09T20:44:33.078Z,1.00
2023-01-09T20:47:02.054Z,1.00
2023-01-09T20:51:59.510Z,0.70
2023-01-09T20:54:28.347Z,0.60
2023-01-09T20:59:25.919Z,0.80
2023-01-09T21:04:23.590Z,0.70
2023-01-09T21:09:21.326Z,0.70
2023-01-09T21:11:50.201Z,0.70
2023-01-09T21:14:19.249Z,0.90
2023-01-09T21:16:54.924Z,0.70
2023-01-09T21:19:24.325Z,0.60
2023-01-09T21:24:22.790Z,0.70
2023-01-09T21:26:51.724Z,1.00
2023-01-09T21:29:20.799Z,0.80
2023-01-09T21:31:51.153Z,0.80
2023-01-09T21:34:21.188Z,0.80
2023-01-09T21:36:50.975Z,0.80
2023-01-09T21:39:21.240Z,0.60
2023-01-09T21:42:08.934Z,0.80
2023-01-09T21:44:58.726Z,0.60
2023-01-09T21:47:28.021Z,0.70
2023-01-09T21:49:56.923Z,0.90
2023-01-09T21:52:26.195Z,0.60
2023-01-09T21:54:55.213Z,0.90
2023-01-09T21:59:53.093Z,1.10
2023-01-09T22:04:51.785Z,1.00
2023-01-09T22:07:20.586Z,0.90
2023-01-09T22:09:49.659Z,1.40
2023-01-09T22:14:47.849Z,1.20
2023-01-09T22:17:16.830Z,1.50
2023-01-09T22:22:14.552Z,0.80
2023-01-09T22:24:44.659Z,0.80
2023-01-09T22:27:13.701Z,1.30
2023-01-09T22:29:42.929Z,5.10
2023-01-09T22:32:12.029Z,4.00
2023-01-09T22:34:43.794Z,3.70
2023-01-09T22:37:12.581Z,2.20
2023-01-09T22:39:41.678Z,2.10
2023-01-09T22:44:39.164Z,1.10
2023-01-09T22:47:08.179Z,1.00
2023-01-09T22:52:22.347Z,0.90
2023-01-09T22:54:51.141Z,1.10
2023-01-09T22:57:20.320Z,1.20
2023-01-09T22:59:49.414Z,0.80
2023-01-09T23:02:18.654Z,0.90
2023-01-09T23:04:47.739Z,0.80
2023-01-09T23:10:39.868Z,1.00
2023-01-09T23:13:08.840Z,1.00
2023-01-09T23:15:37.728Z,1.20
2023-01-09T23:18:08.541Z,1.00
2023-01-09T23:20:37.410Z,1.00
2023-01-09T23:23:06.375Z,1.00
2023-01-09T23:28:04.216Z,1.00
2023-01-09T23:33:02.008Z,1.40
2023-01-09T23:35:31.014Z,1.20
2023-01-09T23:40:28.716Z,1.10
2023-01-09T23:43:10.083Z,0.80
2023-01-09T23:45:44.108Z,0.90
2023-01-09T23:48:16.497Z,1.00
2023-01-09T23:50:51.922Z,0.80
2023-01-09T23:53:22.939Z,0.90
2023-01-09T23:55:57.536Z,1.10
2023-01-09T23:58:29.209Z,1.10
